Meteo Giornale » Osservazioni meteo Italia » Milano-Malpensa

ore: 09:50 - Osservazioni Meteo Milano-Malpensa
Lat. 45° 37' N Lon. 8° 44' E Alt. 234 metri s.l.m.

sereno Europe/Rome

13 °C

Sereno

Temp. 24 Ore

0 °C

16 °C

Nord

5.5 Km/h

Dew point 0 °C

Umidità 40 %

Visibilità  10 Km

Il sole sorge alle ore 06:22

Il sole tramonta alle ore 18:41

Data e Ora Cielo e Fenomeni T °C DP °C Um. % Pres. hPa Vis. km Vento km/h
Oggi h: 09:50 sereno Sereno 13 0 40 1031 10 N 5.5
Oggi h: 09:20 sereno Sereno 11 -0 46 1031 10 N/NO 9.3
Oggi h: 08:50 sereno Sereno 10 1 53 1031 10 N 9.3
Oggi h: 08:20 sereno Sereno 8 1 61 1031 10 N 9.3
Oggi h: 07:50 sereno Sereno 6 1 70 1031 10 N 11.1
Oggi h: 07:20 sereno Sereno 3 -0 80 1031 10 N 11.1
Oggi h: 06:50 sereno Sereno 0 -2 86 1031 10 N 13
Oggi h: 06:20 sereno Sereno 0 -3 80 1030 10 N 9.3
Oggi h: 05:20 sereno Sereno 1 -3 74 1030 10 N 9.3
Oggi h: 04:50 sereno Sereno 1 -3 74 1030 10 N 11.1
Oggi h: 04:20 sereno Sereno 0 -3 80 1031 10 N 11.1
Oggi h: 03:50 sereno Sereno 0 -3 80 1031 10 N 9.3
Oggi h: 03:20 sereno Sereno 3 -2 69 1031 10 N 11.1
Oggi h: 02:50 sereno Sereno 3 -2 69 1031 10 N/NE 9.3
Oggi h: 02:20 sereno Sereno 2 -3 69 1031 10 N 9.3
Oggi h: 01:50 sereno Sereno 2 -3 69 1031 10 N 9.3
Oggi h: 01:20 sereno Sereno 2 -2 74 1031 10 N 13
Oggi h: 00:50 sereno Sereno 1 -3 74 1031 10 N 9.3
Oggi h: 00:20 sereno Sereno 3 -3 64 1031 10 N/NE 7.4
Ieri h: 23:20 sereno Sereno 4 -2 64 1031 10 N/NE 7.4
Ieri h: 22:50 sereno Sereno 5 -2 60 1031 10 N 3.7
Ieri h: 22:20 sereno Sereno 4 -3 60 1031 10 N 5.5
Ieri h: 21:50 sereno Sereno 5 -3 56 1031 10 N 5.5
Ieri h: 21:20 sereno Sereno 7 -3 48 1031 10 N 1.8
Ieri h: 20:50 sereno Sereno 8 -3 45 1030 10 N 3.7
Ieri h: 20:20 sereno Sereno 11 -4 34 1030 10 N 3.7
Ieri h: 19:50 sereno Sereno 12 -4 32 1030 10 S/SO 9.3
Ieri h: 19:20 sereno Sereno 13 -4 30 1030 10 S/SO 9.3
Ieri h: 18:50 sereno Sereno 14 -4 28 1030 10 SO 9.3
Ieri h: 18:20 sereno Sereno 14 -3 30 1030 10 O/SO 11.1
Ieri h: 17:50 sereno Sereno 15 -3 28 1029 10 O/SO 13
Ieri h: 17:20 sereno Sereno 15 -4 26 1029 10 SO 11.1
Ieri h: 16:50 sereno Sereno 16 -3 26 1030 10 O 9.3
Ieri h: 16:20 sereno Sereno 16 -4 24 1030 10 N 5.5
Ieri h: 15:50 sereno Sereno 16 -3 26 1030 10 O/SO 11.1
Ieri h: 15:20 sereno Sereno 16 -2 29 1030 10 N 7.4
Ieri h: 14:20 sereno Sereno 14 -3 30 1031 10 N 9.3
Ieri h: 13:50 sereno Sereno 14 -3 30 1032 10 S 7.4
Ieri h: 13:20 sereno Sereno 14 -2 32 1032 10 O/SO 7.4
Ieri h: 12:50 sereno Sereno 14 -3 30 1033 10 N 3.7
Ieri h: 12:20 sereno Sereno 13 -3 32 1033 10 N 7.4
Ieri h: 11:50 sereno Sereno 12 -3 34 1033 10 O/SO 9.3
Ieri h: 11:20 sereno Sereno 12 -3 34 1034 10 N 7.4
Ieri h: 10:50 sereno Sereno 11 -3 37 1034 10 N 5.5
Ieri h: 10:20 sereno Sereno 11 -4 34 1034 10 O 9.3
Ieri h: 09:50 sereno Sereno 10 -3 39 1034 10 N/NO 7.4